createdAt,value
2017-09-15T00:01:51.592Z,2.93
2017-09-15T00:04:20.227Z,3.30
2017-09-15T00:06:49.799Z,2.50
2017-09-15T00:09:18.172Z,3.63
2017-09-15T00:11:47.564Z,2.67
2017-09-15T00:14:17.378Z,2.60
2017-09-15T00:16:47.503Z,2.87
2017-09-15T00:19:16.931Z,2.27
2017-09-15T00:21:45.354Z,2.10
2017-09-15T00:24:13.741Z,2.93
2017-09-15T00:26:43.161Z,1.67
2017-09-15T00:29:11.555Z,2.40
2017-09-15T00:31:39.919Z,2.37
2017-09-15T00:34:08.627Z,2.43
2017-09-15T00:36:37.015Z,2.77
2017-09-15T00:39:06.030Z,2.10
2017-09-15T00:41:36.861Z,2.63
2017-09-15T00:44:05.238Z,2.73
2017-09-15T00:46:33.611Z,1.80
2017-09-15T00:49:03.154Z,2.20
2017-09-15T00:51:31.534Z,2.23
2017-09-15T00:54:00.641Z,2.93
2017-09-15T00:56:30.243Z,3.20
2017-09-15T00:58:59.406Z,2.70
2017-09-15T01:01:27.785Z,2.60
2017-09-15T01:03:57.726Z,3.60
2017-09-15T01:06:28.751Z,2.87
2017-09-15T01:08:57.130Z,2.60
2017-09-15T01:11:27.336Z,2.77
2017-09-15T01:13:55.715Z,3.17
2017-09-15T01:16:24.304Z,2.80
2017-09-15T01:18:53.144Z,3.73
2017-09-15T01:21:23.064Z,2.93
2017-09-15T01:23:51.768Z,4.20
2017-09-15T01:26:20.651Z,3.90
2017-09-15T01:28:50.502Z,2.93
2017-09-15T01:31:18.870Z,3.90
2017-09-15T01:33:48.464Z,3.10
2017-09-15T01:36:17.452Z,3.63
2017-09-15T01:38:46.259Z,3.90
2017-09-15T01:41:15.672Z,3.20
2017-09-15T01:43:44.021Z,3.10
2017-09-15T01:46:12.377Z,2.60
2017-09-15T01:48:41.936Z,2.63
2017-09-15T01:51:10.284Z,2.40
2017-09-15T01:53:38.637Z,2.20
2017-09-15T01:56:08.196Z,3.53
2017-09-15T01:58:36.583Z,2.80
2017-09-15T02:01:05.204Z,3.40
2017-09-15T02:03:35.834Z,3.33
2017-09-15T02:06:04.970Z,2.70
2017-09-15T02:08:33.314Z,2.83
2017-09-15T02:11:02.943Z,3.00
2017-09-15T02:13:32.178Z,4.23
2017-09-15T02:16:00.517Z,2.97
2017-09-15T02:18:29.139Z,3.70
2017-09-15T02:20:57.506Z,3.00
2017-09-15T02:23:25.857Z,3.53
2017-09-15T02:25:54.482Z,2.97
2017-09-15T02:28:23.885Z,3.60
2017-09-15T02:30:52.917Z,3.30
2017-09-15T02:33:22.626Z,3.50
2017-09-15T02:35:51.891Z,3.50
2017-09-15T02:38:20.279Z,3.10
2017-09-15T02:40:49.721Z,3.17
2017-09-15T02:43:22.864Z,4.10
2017-09-15T02:45:51.504Z,3.33
2017-09-15T02:48:22.206Z,4.00
2017-09-15T02:50:50.554Z,3.50
2017-09-15T02:53:20.381Z,3.20
2017-09-15T02:55:48.768Z,4.57
2017-09-15T02:58:17.147Z,3.03
2017-09-15T03:00:45.865Z,4.20
2017-09-15T03:03:14.986Z,3.03
2017-09-15T03:05:44.082Z,3.33
2017-09-15T03:08:12.834Z,2.77
2017-09-15T03:10:41.204Z,4.33
2017-09-15T03:13:09.616Z,2.50
2017-09-15T03:15:39.137Z,3.37
2017-09-15T03:18:07.682Z,3.50
2017-09-15T03:20:36.037Z,3.13
2017-09-15T03:23:05.748Z,4.00
2017-09-15T03:25:34.089Z,2.50
2017-09-15T03:28:02.538Z,3.40
2017-09-15T03:30:31.386Z,3.53
2017-09-15T03:32:59.752Z,2.93
2017-09-15T03:35:28.114Z,3.90
2017-09-15T03:37:56.992Z,4.13
2017-09-15T03:40:25.344Z,3.53
2017-09-15T03:42:54.705Z,3.13
2017-09-15T03:45:23.370Z,5.40
2017-09-15T03:47:52.378Z,3.70
2017-09-15T03:50:20.733Z,2.87
2017-09-15T03:52:49.752Z,3.67
2017-09-15T03:55:18.133Z,3.33
2017-09-15T03:57:46.477Z,3.53
2017-09-15T04:00:15.170Z,3.67
2017-09-15T04:02:43.542Z,4.97
2017-09-15T04:05:12.675Z,3.50
2017-09-15T04:07:41.381Z,3.30
2017-09-15T04:10:09.720Z,4.50
2017-09-15T04:12:38.086Z,3.40
2017-09-15T04:15:07.519Z,3.87
2017-09-15T04:17:35.907Z,2.53
2017-09-15T04:20:04.847Z,2.60
2017-09-15T04:22:34.425Z,4.00
2017-09-15T04:25:02.786Z,3.40
2017-09-15T04:27:31.165Z,3.27
2017-09-15T04:30:01.019Z,3.40
2017-09-15T04:32:29.394Z,3.30
2017-09-15T04:34:58.534Z,3.90
2017-09-15T04:37:27.337Z,3.60
2017-09-15T04:39:55.693Z,2.90
2017-09-15T04:42:25.407Z,3.40
2017-09-15T04:44:54.464Z,3.17
2017-09-15T04:47:23.457Z,2.20
2017-09-15T04:49:53.173Z,3.00
2017-09-15T04:52:22.586Z,3.10
2017-09-15T04:54:51.153Z,2.47
2017-09-15T04:57:22.832Z,3.43
2017-09-15T04:59:51.899Z,3.23
2017-09-15T05:02:21.498Z,3.50
2017-09-15T05:04:50.674Z,3.10
2017-09-15T05:07:19.759Z,2.60
2017-09-15T05:09:48.183Z,2.80
2017-09-15T05:12:17.178Z,2.37
2017-09-15T05:14:46.682Z,2.70
2017-09-15T05:17:15.063Z,3.67
2017-09-15T05:19:44.978Z,3.13
2017-09-15T05:22:13.688Z,4.03
2017-09-15T05:24:42.139Z,4.63
2017-09-15T05:27:10.500Z,3.40
2017-09-15T05:29:40.289Z,2.87
2017-09-15T05:32:08.671Z,2.90
2017-09-15T05:34:37.807Z,3.10
2017-09-15T05:37:07.518Z,2.87
2017-09-15T05:39:35.914Z,2.90
2017-09-15T05:42:04.483Z,3.10
2017-09-15T05:44:33.121Z,3.27
2017-09-15T05:47:02.393Z,2.90
2017-09-15T05:49:30.744Z,2.80
2017-09-15T05:51:59.840Z,2.70
2017-09-15T05:54:28.215Z,2.33
2017-09-15T05:56:57.959Z,2.30
2017-09-15T05:59:26.725Z,3.10
2017-09-15T06:01:55.095Z,2.63
2017-09-15T06:04:23.469Z,3.87
2017-09-15T06:06:52.103Z,2.77
2017-09-15T06:09:20.610Z,3.30
2017-09-15T06:11:51.065Z,2.87
2017-09-15T06:14:20.793Z,3.20
2017-09-15T06:16:49.434Z,2.63
2017-09-15T06:19:17.821Z,3.37
2017-09-15T06:21:46.780Z,3.20
2017-09-15T06:24:16.821Z,2.53
2017-09-15T06:26:45.298Z,3.20
2017-09-15T06:29:14.204Z,3.33
2017-09-15T06:31:42.669Z,3.47
2017-09-15T06:34:11.813Z,3.30
2017-09-15T06:36:41.232Z,3.50
2017-09-15T06:39:09.594Z,3.20
2017-09-15T06:41:38.513Z,4.10
2017-09-15T06:44:08.017Z,3.80
2017-09-15T06:46:36.391Z,2.80
2017-09-15T06:49:05.531Z,3.50
2017-09-15T06:51:35.881Z,2.80
2017-09-15T06:54:04.880Z,3.30
2017-09-15T06:56:33.280Z,3.00
2017-09-15T06:59:02.349Z,3.60
2017-09-15T07:01:32.129Z,3.03
2017-09-15T07:04:01.508Z,3.40
2017-09-15T07:06:31.158Z,3.67
2017-09-15T07:09:00.225Z,3.40
2017-09-15T07:11:29.383Z,3.50
2017-09-15T07:13:58.660Z,2.67
2017-09-15T07:16:27.723Z,2.63
2017-09-15T07:18:56.104Z,3.40
2017-09-15T07:21:26.351Z,3.57
2017-09-15T07:23:54.710Z,2.40
2017-09-15T07:26:23.063Z,2.70
2017-09-15T07:28:52.518Z,2.20
2017-09-15T07:31:21.578Z,3.60
2017-09-15T07:33:50.947Z,3.20
2017-09-15T07:36:19.665Z,3.20
2017-09-15T07:38:48.866Z,2.73
2017-09-15T07:41:19.463Z,3.40
2017-09-15T07:43:49.824Z,3.03
2017-09-15T07:46:18.961Z,2.83
2017-09-15T07:48:47.335Z,2.50
2017-09-15T07:51:17.055Z,2.90
2017-09-15T07:53:46.785Z,3.13
2017-09-15T07:56:15.137Z,2.73
2017-09-15T07:58:44.989Z,2.30
2017-09-15T08:01:13.382Z,2.30
2017-09-15T08:03:41.796Z,2.60
2017-09-15T08:06:11.371Z,2.67
2017-09-15T08:08:39.741Z,2.60
2017-09-15T08:11:09.065Z,2.70
2017-09-15T08:13:38.526Z,2.40
2017-09-15T08:16:08.586Z,2.37
2017-09-15T08:18:38.561Z,2.77
2017-09-15T08:21:07.450Z,2.30
2017-09-15T08:23:37.641Z,2.73
2017-09-15T08:26:06.084Z,3.30
2017-09-15T08:28:35.855Z,2.77
2017-09-15T08:31:04.701Z,2.10
2017-09-15T08:33:33.199Z,2.33
2017-09-15T08:36:03.046Z,2.30
2017-09-15T08:38:31.466Z,3.27
2017-09-15T08:41:01.163Z,2.33
2017-09-15T08:43:30.546Z,2.67
2017-09-15T08:45:58.924Z,2.40
2017-09-15T08:48:27.717Z,2.77
2017-09-15T08:50:57.140Z,2.70
2017-09-15T08:53:25.506Z,2.30
2017-09-15T08:55:53.890Z,2.33
2017-09-15T08:58:22.610Z,2.70
2017-09-15T09:00:51.043Z,2.33
2017-09-15T09:03:20.248Z,2.60
2017-09-15T09:05:49.102Z,2.20
2017-09-15T09:08:19.161Z,2.30
2017-09-15T09:10:47.518Z,1.60
2017-09-15T09:13:16.928Z,2.00
2017-09-15T09:15:45.365Z,2.20
2017-09-15T09:18:13.754Z,2.10
2017-09-15T09:20:42.491Z,2.10
2017-09-15T09:23:10.928Z,2.43
2017-09-15T09:25:39.374Z,2.47
2017-09-15T09:28:08.318Z,2.00
2017-09-15T09:30:36.746Z,2.20
2017-09-15T09:33:06.011Z,2.57
2017-09-15T09:35:34.872Z,2.23
2017-09-15T09:38:05.314Z,2.10
2017-09-15T09:40:33.681Z,2.37
2017-09-15T09:43:02.704Z,2.50
2017-09-15T09:45:32.142Z,2.50
2017-09-15T09:48:00.867Z,2.20
2017-09-15T09:50:29.792Z,2.33
2017-09-15T09:52:59.581Z,2.53
2017-09-15T09:55:27.981Z,2.40
2017-09-15T09:57:56.797Z,2.60
2017-09-15T10:00:27.967Z,2.97
2017-09-15T10:02:56.376Z,2.40
2017-09-15T10:05:25.084Z,1.80
2017-09-15T10:07:53.522Z,2.23
2017-09-15T10:10:22.836Z,1.77
2017-09-15T10:12:51.689Z,2.80
2017-09-15T10:15:20.107Z,3.23
2017-09-15T10:17:49.693Z,3.23
2017-09-15T10:20:19.187Z,2.13
2017-09-15T10:22:48.361Z,3.03
2017-09-15T10:25:16.958Z,1.70
2017-09-15T10:27:45.793Z,2.03
2017-09-15T10:30:14.324Z,2.00
2017-09-15T10:32:42.946Z,1.90
2017-09-15T10:35:12.472Z,2.70
2017-09-15T10:37:40.865Z,2.33
2017-09-15T10:40:10.004Z,2.17
2017-09-15T10:42:39.331Z,2.30
2017-09-15T10:45:07.690Z,1.73
2017-09-15T10:47:36.112Z,1.80
2017-09-15T10:50:05.859Z,1.83
2017-09-15T10:52:34.261Z,2.10
2017-09-15T10:55:02.618Z,1.93
2017-09-15T10:57:36.776Z,1.50
2017-09-15T11:00:12.300Z,1.53
2017-09-15T11:02:40.988Z,2.20
2017-09-15T11:05:09.388Z,1.57
2017-09-15T11:07:37.774Z,2.17
2017-09-15T11:10:07.971Z,1.70
2017-09-15T11:12:37.142Z,1.67
2017-09-15T11:15:06.031Z,1.73
2017-09-15T11:17:35.015Z,1.53
2017-09-15T11:20:04.047Z,1.70
2017-09-15T11:22:33.889Z,1.53
2017-09-15T11:25:02.849Z,2.60
2017-09-15T11:27:31.982Z,1.70
2017-09-15T11:30:01.099Z,1.53
2017-09-15T11:32:29.728Z,1.77
2017-09-15T11:34:58.812Z,1.60
2017-09-15T11:37:27.846Z,2.10
2017-09-15T11:39:58.111Z,2.17
2017-09-15T11:42:26.486Z,2.10
2017-09-15T11:44:54.852Z,2.93
2017-09-15T11:47:23.673Z,2.20
2017-09-15T11:49:52.017Z,2.57
2017-09-15T11:52:20.670Z,2.47
2017-09-15T11:54:50.124Z,2.43
2017-09-15T11:57:18.485Z,2.40
2017-09-15T11:59:47.550Z,2.27
2017-09-15T12:02:16.995Z,2.90
2017-09-15T12:04:45.360Z,2.80
2017-09-15T12:07:13.743Z,2.47
2017-09-15T12:09:43.296Z,3.17
2017-09-15T12:12:11.654Z,2.30
2017-09-15T12:14:40.028Z,2.40
2017-09-15T12:17:08.666Z,3.27
2017-09-15T12:19:37.690Z,2.77
2017-09-15T12:22:06.069Z,2.40
2017-09-15T12:24:34.717Z,2.70
2017-09-15T12:27:03.073Z,2.47
2017-09-15T12:29:31.427Z,2.60
2017-09-15T12:32:02.516Z,3.10
2017-09-15T12:34:30.920Z,3.37
2017-09-15T12:36:59.307Z,3.50
2017-09-15T12:39:28.179Z,3.10
2017-09-15T12:41:58.113Z,3.97
2017-09-15T12:44:28.063Z,3.07
2017-09-15T12:46:56.722Z,3.40
2017-09-15T12:49:25.099Z,3.70
2017-09-15T12:51:53.467Z,4.30
2017-09-15T12:54:23.572Z,4.30
2017-09-15T12:56:52.696Z,3.23
2017-09-15T12:59:21.843Z,3.63
2017-09-15T13:01:50.610Z,3.00
2017-09-15T13:04:19.351Z,2.90
2017-09-15T13:06:48.493Z,2.73
2017-09-15T13:09:17.153Z,3.43
2017-09-15T13:11:46.434Z,2.80
2017-09-15T13:14:16.575Z,4.90
2017-09-15T13:16:45.516Z,4.03
2017-09-15T13:19:14.514Z,3.53
2017-09-15T13:21:43.157Z,4.00
2017-09-15T13:24:11.797Z,4.03
2017-09-15T13:26:40.141Z,4.73
2017-09-15T13:29:08.519Z,5.60
2017-09-15T13:31:37.381Z,4.70
2017-09-15T13:34:05.844Z,5.93
2017-09-15T13:36:34.818Z,4.83
2017-09-15T13:39:03.588Z,5.37
2017-09-15T13:41:32.013Z,5.73
2017-09-15T13:44:00.373Z,5.80
2017-09-15T13:46:30.635Z,5.87
2017-09-15T13:48:58.974Z,6.30
2017-09-15T13:51:28.086Z,7.47
2017-09-15T13:53:57.527Z,6.40
2017-09-15T13:56:26.192Z,7.40
2017-09-15T13:58:54.594Z,6.37
2017-09-15T14:01:23.398Z,7.00
2017-09-15T14:03:54.381Z,6.90
2017-09-15T14:06:23.945Z,6.87
2017-09-15T14:08:52.312Z,6.30
2017-09-15T14:11:21.231Z,6.47
2017-09-15T14:13:50.967Z,6.40
2017-09-15T14:16:21.039Z,7.00
2017-09-15T14:18:49.388Z,7.50
2017-09-15T14:21:19.226Z,6.20
2017-09-15T14:23:47.617Z,6.07
2017-09-15T14:26:17.096Z,6.80
2017-09-15T14:28:46.114Z,6.80
2017-09-15T14:31:15.886Z,6.90
2017-09-15T14:33:45.783Z,7.00
2017-09-15T14:36:15.632Z,6.90
2017-09-15T14:38:44.252Z,5.40
2017-09-15T14:41:12.616Z,4.90
2017-09-15T14:43:42.123Z,5.03
2017-09-15T14:46:11.415Z,5.07
2017-09-15T14:48:40.328Z,5.33
2017-09-15T14:51:09.138Z,6.20
2017-09-15T14:53:37.612Z,5.50
2017-09-15T14:56:05.980Z,5.27
2017-09-15T14:58:34.700Z,5.07
2017-09-15T15:01:03.369Z,4.93
2017-09-15T15:03:33.345Z,5.50
2017-09-15T15:06:03.369Z,5.00
2017-09-15T15:08:31.893Z,7.63
2017-09-15T15:11:01.048Z,6.60
2017-09-15T15:13:30.471Z,5.47
2017-09-15T15:15:58.839Z,5.77
2017-09-15T15:18:27.177Z,5.67
2017-09-15T15:20:55.872Z,6.50
2017-09-15T15:23:24.197Z,6.33
2017-09-15T15:25:53.427Z,7.80
2017-09-15T15:28:23.813Z,7.43
2017-09-15T15:30:52.283Z,7.63
2017-09-15T15:33:20.674Z,5.40
2017-09-15T15:35:50.235Z,5.20
2017-09-15T15:38:18.582Z,5.10
2017-09-15T15:40:48.168Z,6.50
2017-09-15T15:43:18.525Z,5.00
2017-09-15T15:45:46.867Z,4.23
2017-09-15T15:48:15.207Z,4.57
2017-09-15T15:50:45.152Z,4.73
2017-09-15T15:53:14.355Z,4.43
2017-09-15T15:55:42.714Z,4.23
2017-09-15T15:58:11.258Z,5.03
2017-09-15T16:00:39.622Z,5.30
2017-09-15T16:03:07.987Z,4.60
2017-09-15T16:05:37.310Z,4.10
2017-09-15T16:08:05.688Z,4.00
2017-09-15T16:10:34.374Z,3.90
2017-09-15T16:13:03.332Z,4.60
2017-09-15T16:15:31.665Z,3.90
2017-09-15T16:18:00.038Z,4.40
2017-09-15T16:20:29.472Z,4.97
2017-09-15T16:22:58.190Z,4.77
2017-09-15T16:25:26.564Z,4.30
2017-09-15T16:27:55.190Z,4.00
2017-09-15T16:30:24.750Z,4.37
2017-09-15T16:32:53.100Z,3.97
2017-09-15T16:35:21.845Z,4.00
2017-09-15T16:37:50.354Z,4.43
2017-09-15T16:40:25.266Z,6.07
2017-09-15T16:42:59.878Z,6.40
2017-09-15T16:45:33.908Z,6.23
2017-09-15T16:48:10.063Z,5.70
2017-09-15T16:50:39.121Z,6.10
2017-09-15T16:53:07.497Z,5.37
2017-09-15T16:55:35.874Z,5.43
2017-09-15T16:58:04.526Z,6.20
2017-09-15T17:00:33.237Z,6.57
2017-09-15T17:03:03.141Z,6.97
2017-09-15T17:05:31.752Z,6.30
2017-09-15T17:08:00.125Z,6.60
2017-09-15T17:10:28.497Z,7.20
2017-09-15T17:12:57.692Z,7.97
2017-09-15T17:15:26.610Z,6.60
2017-09-15T17:17:55.198Z,7.10
2017-09-15T17:20:23.953Z,7.20
2017-09-15T17:22:53.522Z,8.13
2017-09-15T17:25:21.894Z,7.53
2017-09-15T17:27:51.474Z,8.33
2017-09-15T17:30:19.833Z,8.13
2017-09-15T17:32:49.199Z,8.23
2017-09-15T17:35:18.245Z,8.97
2017-09-15T17:37:46.638Z,9.63
2017-09-15T17:40:14.996Z,9.53
2017-09-15T17:42:43.892Z,9.90
2017-09-15T17:45:13.810Z,9.53
2017-09-15T17:47:42.817Z,10.23
2017-09-15T17:50:12.268Z,9.53
2017-09-15T17:52:42.314Z,9.93
2017-09-15T17:55:10.707Z,10.37
2017-09-15T17:57:39.820Z,10.40
2017-09-15T18:00:09.087Z,9.40
2017-09-15T18:02:37.775Z,10.80
2017-09-15T18:05:06.994Z,12.83
2017-09-15T18:07:36.317Z,13.03
2017-09-15T18:10:05.468Z,11.83
2017-09-15T18:12:34.910Z,11.67
2017-09-15T18:15:03.291Z,11.07
2017-09-15T18:17:31.655Z,11.20
2017-09-15T18:20:01.278Z,11.20
2017-09-15T18:22:29.659Z,10.73
2017-09-15T18:24:58.087Z,11.40
2017-09-15T18:27:27.503Z,11.47
2017-09-15T18:29:55.870Z,11.40
2017-09-15T18:32:24.986Z,12.50
2017-09-15T18:34:54.466Z,12.00
2017-09-15T18:37:23.691Z,12.20
2017-09-15T18:39:52.083Z,12.33
2017-09-15T18:42:21.113Z,12.47
2017-09-15T18:44:49.469Z,12.30
2017-09-15T18:47:17.811Z,12.07
2017-09-15T18:49:46.454Z,11.90
2017-09-15T18:52:14.874Z,10.50
2017-09-15T18:54:43.326Z,10.50
2017-09-15T18:57:11.942Z,10.53
2017-09-15T18:59:40.346Z,10.60
2017-09-15T19:02:10.017Z,10.93
2017-09-15T19:04:39.759Z,11.30
2017-09-15T19:07:08.112Z,10.23
2017-09-15T19:09:36.484Z,11.70
2017-09-15T19:12:06.142Z,10.40
2017-09-15T19:14:34.509Z,11.40
2017-09-15T19:17:02.899Z,11.67
2017-09-15T19:19:34.438Z,11.23
2017-09-15T19:22:03.502Z,10.80
2017-09-15T19:24:34.348Z,10.97
2017-09-15T19:27:03.999Z,11.77
2017-09-15T19:29:32.381Z,11.73
2017-09-15T19:32:00.775Z,11.20
2017-09-15T19:34:29.484Z,12.17
2017-09-15T19:36:58.762Z,11.87
2017-09-15T19:39:27.450Z,12.23
2017-09-15T19:41:56.137Z,12.13
2017-09-15T19:44:25.486Z,11.50
2017-09-15T19:46:53.894Z,12.27
2017-09-15T19:49:22.709Z,12.70
2017-09-15T19:51:51.099Z,12.17
2017-09-15T19:56:53.035Z,11.70
2017-09-15T19:59:21.438Z,11.20
2017-09-15T20:01:50.621Z,11.97
2017-09-15T20:04:19.544Z,11.70
2017-09-15T20:06:48.890Z,11.50
2017-09-15T20:09:17.280Z,12.23
2017-09-15T20:11:46.473Z,13.10
2017-09-15T20:14:14.834Z,12.00
2017-09-15T20:16:43.211Z,11.20
2017-09-15T20:19:12.620Z,11.10
2017-09-15T20:21:42.000Z,10.80
2017-09-15T20:24:10.359Z,13.30
2017-09-15T20:26:39.007Z,12.30
2017-09-15T20:29:07.401Z,11.50
2017-09-15T20:31:36.058Z,10.90
2017-09-15T20:34:05.462Z,11.40
2017-09-15T20:36:34.266Z,10.93
2017-09-15T20:39:02.619Z,11.43
2017-09-15T20:41:31.800Z,10.60
2017-09-15T20:44:02.601Z,11.20
2017-09-15T20:46:31.583Z,11.30
2017-09-15T20:49:01.084Z,10.50
2017-09-15T20:51:29.458Z,9.67
2017-09-15T20:53:57.831Z,10.53
2017-09-15T20:56:26.548Z,10.37
2017-09-15T20:58:54.936Z,10.80
2017-09-15T21:01:24.136Z,11.03
2017-09-15T21:03:52.876Z,9.20
2017-09-15T21:06:21.268Z,10.40
2017-09-15T21:08:50.038Z,10.33
2017-09-15T21:11:18.701Z,10.00
2017-09-15T21:13:47.471Z,9.60
2017-09-15T21:16:16.260Z,8.97
2017-09-15T21:18:45.512Z,8.57
2017-09-15T21:21:14.674Z,8.27
2017-09-15T21:23:43.024Z,9.27
2017-09-15T21:26:11.938Z,8.10
2017-09-15T21:28:40.295Z,8.60
2017-09-15T21:31:08.681Z,8.03
2017-09-15T21:33:37.344Z,9.50
2017-09-15T21:36:05.723Z,8.73
2017-09-15T21:38:34.889Z,8.67
2017-09-15T21:41:05.152Z,8.67
2017-09-15T21:43:33.603Z,9.70
2017-09-15T21:46:01.985Z,9.30
2017-09-15T21:48:31.469Z,9.43
2017-09-15T21:51:00.609Z,9.97
2017-09-15T21:53:29.710Z,9.73
2017-09-15T21:55:58.674Z,9.27
2017-09-15T21:58:27.077Z,9.90
2017-09-15T22:00:55.450Z,9.90
2017-09-15T22:03:24.245Z,9.97
2017-09-15T22:05:52.595Z,9.77
2017-09-15T22:08:20.974Z,9.93
2017-09-15T22:10:50.482Z,10.37
2017-09-15T22:13:19.142Z,10.23
2017-09-15T22:15:48.290Z,10.90
2017-09-15T22:18:17.074Z,11.30
2017-09-15T22:20:45.447Z,9.90
2017-09-15T22:23:13.889Z,10.80
2017-09-15T22:25:43.651Z,10.90
2017-09-15T22:28:12.746Z,10.70
2017-09-15T22:30:41.239Z,11.33
2017-09-15T22:33:10.767Z,11.47
2017-09-15T22:35:39.900Z,11.87
2017-09-15T22:38:08.393Z,11.70
2017-09-15T22:40:38.088Z,11.50
2017-09-15T22:43:07.349Z,11.00
2017-09-15T22:45:36.891Z,12.67
2017-09-15T22:48:06.992Z,12.80
2017-09-15T22:50:35.399Z,12.43
2017-09-15T22:53:05.418Z,12.30
2017-09-15T22:55:34.229Z,12.90
2017-09-15T22:58:02.965Z,13.93
2017-09-15T23:00:31.463Z,14.27
2017-09-15T23:03:01.462Z,14.93
2017-09-15T23:05:29.869Z,13.90
2017-09-15T23:07:58.440Z,13.77
2017-09-15T23:10:28.392Z,15.00
2017-09-15T23:12:56.859Z,15.50
2017-09-15T23:15:26.486Z,13.80
2017-09-15T23:17:55.990Z,14.80
2017-09-15T23:20:24.460Z,14.33
2017-09-15T23:22:52.856Z,15.40
2017-09-15T23:25:22.318Z,14.40
2017-09-15T23:27:50.708Z,14.13
2017-09-15T23:30:19.783Z,16.03
2017-09-15T23:32:49.262Z,16.50
2017-09-15T23:35:17.641Z,16.17
2017-09-15T23:37:46.075Z,15.60
2017-09-15T23:40:14.914Z,14.90
2017-09-15T23:42:43.323Z,16.23
2017-09-15T23:45:12.623Z,15.90
2017-09-15T23:47:41.842Z,14.73
2017-09-15T23:50:10.281Z,16.20
2017-09-15T23:52:38.782Z,14.80
2017-09-15T23:55:08.839Z,15.20
2017-09-15T23:57:37.321Z,14.93
